createdAt,value
2022-10-18T00:00:55.721Z,41.89
2022-10-18T00:01:55.742Z,40.77
2022-10-18T00:02:55.720Z,39.48
2022-10-18T00:03:55.663Z,39.16
2022-10-18T00:04:55.655Z,38.99
2022-10-18T00:05:55.641Z,39.32
2022-10-18T00:06:55.650Z,39.96
2022-10-18T00:07:55.611Z,38.19
2022-10-18T00:08:55.601Z,40.12
2022-10-18T00:09:55.583Z,38.67
2022-10-18T00:10:55.575Z,38.83
2022-10-18T00:11:55.574Z,38.67
2022-10-18T00:12:55.545Z,40.12
2022-10-18T00:13:55.534Z,39.96
2022-10-18T00:14:55.514Z,38.99
2022-10-18T00:15:55.504Z,38.51
2022-10-18T00:16:55.515Z,39.32
2022-10-18T00:17:55.496Z,38.67
2022-10-18T00:18:55.466Z,39.16
2022-10-18T00:19:55.449Z,39.32
2022-10-18T00:20:55.436Z,38.67
2022-10-18T00:21:55.437Z,39.64
2022-10-18T00:22:55.414Z,38.83
2022-10-18T00:23:55.408Z,38.51
2022-10-18T00:24:55.387Z,38.51
2022-10-18T00:25:55.378Z,38.99
2022-10-18T00:26:55.377Z,38.83
2022-10-18T00:27:55.346Z,39.64
2022-10-18T00:28:55.413Z,40.12
2022-10-18T00:29:55.317Z,39.32
2022-10-18T00:30:55.310Z,38.83
2022-10-18T00:31:55.299Z,38.99
2022-10-18T00:32:55.288Z,39.64
2022-10-18T00:33:55.269Z,38.83
2022-10-18T00:34:55.266Z,40.28
2022-10-18T00:35:55.236Z,38.99
2022-10-18T00:36:55.239Z,39.32
2022-10-18T00:37:55.216Z,39.16
2022-10-18T00:38:55.199Z,38.83
2022-10-18T00:39:55.181Z,38.51
2022-10-18T00:40:55.169Z,38.67
2022-10-18T00:41:55.171Z,38.19
2022-10-18T00:42:55.152Z,38.19
2022-10-18T00:43:55.133Z,38.19
2022-10-18T00:44:55.120Z,40.61
2022-10-18T00:45:55.107Z,39.64
2022-10-18T00:46:55.109Z,39.16
2022-10-18T00:47:55.079Z,38.67
2022-10-18T00:49:55.054Z,38.67
2022-10-18T00:50:55.042Z,38.67
2022-10-18T00:51:55.042Z,38.83
2022-10-18T00:52:55.021Z,39.80
2022-10-18T00:53:54.993Z,40.12
2022-10-18T00:54:54.994Z,38.83
2022-10-18T00:55:54.973Z,38.03
2022-10-18T00:56:54.987Z,39.96
2022-10-18T00:58:54.936Z,38.83
2022-10-18T00:59:54.922Z,39.48
2022-10-18T01:00:54.909Z,38.67
2022-10-18T01:01:54.952Z,39.80
2022-10-18T01:02:54.882Z,38.83
2022-10-18T01:03:54.871Z,38.67
2022-10-18T01:04:54.854Z,38.99
2022-10-18T01:05:54.837Z,39.32
2022-10-18T01:06:54.873Z,44.79
2022-10-18T01:07:54.813Z,39.80
2022-10-18T01:08:54.806Z,40.28
2022-10-18T01:09:54.786Z,38.67
2022-10-18T01:10:54.778Z,38.99
2022-10-18T01:11:54.769Z,39.64
2022-10-18T01:12:54.746Z,38.67
2022-10-18T01:13:54.735Z,38.19
2022-10-18T01:14:54.727Z,38.83
2022-10-18T01:16:54.707Z,39.64
2022-10-18T01:17:54.677Z,40.44
2022-10-18T01:18:54.670Z,39.32
2022-10-18T01:19:54.649Z,38.67
2022-10-18T01:20:54.646Z,40.12
2022-10-18T01:21:54.637Z,40.61
2022-10-18T01:22:54.618Z,39.32
2022-10-18T01:23:54.606Z,38.83
2022-10-18T01:24:54.652Z,38.19
2022-10-18T01:25:54.570Z,38.83
2022-10-18T01:26:54.579Z,38.83
2022-10-18T01:27:54.547Z,38.19
2022-10-18T01:28:54.593Z,38.83
2022-10-18T01:29:54.524Z,40.12
2022-10-18T01:30:54.513Z,38.67
2022-10-18T01:31:56.412Z,38.83
2022-10-18T01:32:54.483Z,38.83
2022-10-18T01:33:54.478Z,38.83
2022-10-18T01:34:54.628Z,42.06
2022-10-18T01:35:54.443Z,38.99
2022-10-18T01:36:54.451Z,39.32
2022-10-18T01:37:54.419Z,39.32
2022-10-18T01:38:54.413Z,38.83
2022-10-18T01:39:54.399Z,38.83
2022-10-18T01:40:54.375Z,38.83
2022-10-18T01:41:54.382Z,39.48
2022-10-18T01:42:54.425Z,38.83
2022-10-18T01:43:54.334Z,39.64
2022-10-18T01:44:54.320Z,38.67
2022-10-18T01:45:54.314Z,39.96
2022-10-18T01:46:54.313Z,38.83
2022-10-18T01:47:54.283Z,39.48
2022-10-18T01:48:54.273Z,38.99
2022-10-18T01:49:54.255Z,38.51
2022-10-18T01:50:54.267Z,38.99
2022-10-18T01:51:54.314Z,38.51
2022-10-18T01:52:54.215Z,40.28
2022-10-18T01:53:54.212Z,38.19
2022-10-18T01:54:54.185Z,38.19
2022-10-18T01:55:54.177Z,38.83
2022-10-18T01:56:54.175Z,39.48
2022-10-18T01:57:54.152Z,43.02
2022-10-18T01:58:54.132Z,40.44
2022-10-18T01:59:54.146Z,40.28
2022-10-18T02:00:54.106Z,39.64
2022-10-18T02:01:54.115Z,39.96
2022-10-18T02:02:54.197Z,40.44
2022-10-18T02:03:54.074Z,42.38
2022-10-18T02:04:54.045Z,42.22
2022-10-18T02:05:54.053Z,41.57
2022-10-18T02:06:54.037Z,42.22
2022-10-18T02:08:05.611Z,43.02
2022-10-18T02:08:54.997Z,44.79
2022-10-18T02:09:53.988Z,45.60
2022-10-18T02:10:53.988Z,47.05
2022-10-18T02:11:53.982Z,47.05
2022-10-18T02:12:53.946Z,46.89
2022-10-18T02:13:53.937Z,47.37
2022-10-18T02:14:53.928Z,47.70
2022-10-18T02:15:53.909Z,46.25
2022-10-18T02:16:53.911Z,46.73
2022-10-18T02:17:53.887Z,47.70
2022-10-18T02:18:53.867Z,47.53
2022-10-18T02:19:53.867Z,48.02
2022-10-18T02:20:53.842Z,48.82
2022-10-18T02:21:53.840Z,47.86
2022-10-18T02:22:53.816Z,48.34
2022-10-18T02:23:53.800Z,47.70
2022-10-18T02:24:53.780Z,47.37
2022-10-18T02:25:53.781Z,50.11
2022-10-18T02:26:53.773Z,48.66
2022-10-18T02:27:53.750Z,48.82
2022-10-18T02:28:53.730Z,48.66
2022-10-18T02:29:53.723Z,48.66
2022-10-18T02:30:53.713Z,48.18
2022-10-18T02:31:53.713Z,48.34
2022-10-18T02:32:53.673Z,48.82
2022-10-18T02:33:53.670Z,48.82
2022-10-18T02:34:53.763Z,48.18
2022-10-18T02:35:53.644Z,48.82
2022-10-18T02:36:53.640Z,54.30
2022-10-18T02:37:53.614Z,49.47
2022-10-18T02:38:53.593Z,49.31
2022-10-18T02:39:53.601Z,48.50
2022-10-18T02:40:53.574Z,51.24
2022-10-18T02:41:53.604Z,48.98
2022-10-18T02:42:53.544Z,51.24
2022-10-18T02:43:53.533Z,51.08
2022-10-18T02:44:53.522Z,51.08
2022-10-18T02:45:53.536Z,50.11
2022-10-18T02:46:53.515Z,52.21
2022-10-18T02:47:53.485Z,48.98
2022-10-18T02:48:53.464Z,49.47
2022-10-18T02:49:53.455Z,49.95
2022-10-18T02:50:53.435Z,49.95
2022-10-18T02:51:53.443Z,51.24
2022-10-18T02:52:53.406Z,50.92
2022-10-18T02:53:53.405Z,51.72
2022-10-18T02:54:53.386Z,59.94
2022-10-18T02:55:53.373Z,50.11
2022-10-18T02:56:53.379Z,50.43
2022-10-18T02:57:53.353Z,50.92
2022-10-18T02:58:53.336Z,49.47
2022-10-18T02:59:53.317Z,49.47
2022-10-18T03:00:53.306Z,49.15
2022-10-18T03:01:53.428Z,49.95
2022-10-18T03:02:53.282Z,49.47
2022-10-18T03:03:53.269Z,49.95
2022-10-18T03:04:53.248Z,53.17
2022-10-18T03:05:53.247Z,53.33
2022-10-18T03:06:53.239Z,53.98
2022-10-18T03:07:53.219Z,53.82
2022-10-18T03:08:53.201Z,53.82
2022-10-18T03:09:53.189Z,52.21
2022-10-18T03:10:53.168Z,52.37
2022-10-18T03:11:53.178Z,52.05
2022-10-18T03:12:53.143Z,53.33
2022-10-18T03:13:53.133Z,51.40
2022-10-18T03:14:53.118Z,51.72
2022-10-18T03:15:53.107Z,50.76
2022-10-18T03:16:53.102Z,52.05
2022-10-18T03:17:53.081Z,52.85
2022-10-18T03:18:53.060Z,53.01
2022-10-18T03:19:53.059Z,53.01
2022-10-18T03:20:53.032Z,60.10
2022-10-18T03:21:53.042Z,52.37
2022-10-18T03:22:53.015Z,51.56
2022-10-18T03:23:53.001Z,49.95
2022-10-18T03:24:52.990Z,48.98
2022-10-18T03:25:52.973Z,51.40
2022-10-18T03:26:52.977Z,48.18
2022-10-18T03:27:52.943Z,48.66
2022-10-18T03:28:52.988Z,48.66
2022-10-18T03:29:52.922Z,48.98
2022-10-18T03:30:52.902Z,48.02
2022-10-18T03:31:52.913Z,49.63
2022-10-18T03:32:52.889Z,48.66
2022-10-18T03:33:52.885Z,51.72
2022-10-18T03:34:52.852Z,49.63
2022-10-18T03:35:52.845Z,48.98
2022-10-18T03:36:52.843Z,48.98
2022-10-18T03:37:52.814Z,50.76
2022-10-18T03:38:52.795Z,52.21
2022-10-18T03:39:52.795Z,49.15
2022-10-18T03:40:52.784Z,49.79
2022-10-18T03:41:52.785Z,49.79
2022-10-18T03:42:52.747Z,49.79
2022-10-18T03:43:52.736Z,51.40
2022-10-18T03:44:52.719Z,51.56
2022-10-18T03:45:52.708Z,50.60
2022-10-18T03:46:52.707Z,51.24
2022-10-18T03:47:52.686Z,53.01
2022-10-18T03:48:52.666Z,53.01
2022-10-18T03:49:54.735Z,52.21
2022-10-18T03:50:52.636Z,52.53
2022-10-18T03:51:52.718Z,50.27
2022-10-18T03:52:52.616Z,50.60
2022-10-18T03:53:52.598Z,55.75
2022-10-18T03:54:52.586Z,49.47
2022-10-18T03:55:52.569Z,48.66
2022-10-18T03:56:52.579Z,48.66
2022-10-18T03:57:52.552Z,59.78
2022-10-18T03:58:52.536Z,47.70
2022-10-18T03:59:52.520Z,47.70
2022-10-18T04:00:52.508Z,47.21
2022-10-18T04:01:52.546Z,56.56
2022-10-18T04:02:55.061Z,50.11
2022-10-18T04:03:52.479Z,47.21
2022-10-18T04:04:52.452Z,45.92
2022-10-18T04:05:52.441Z,45.44
2022-10-18T04:06:52.451Z,56.72
2022-10-18T04:07:52.411Z,47.53
2022-10-18T04:08:52.404Z,54.62
2022-10-18T04:09:52.390Z,48.34
2022-10-18T04:10:52.371Z,53.01
2022-10-18T04:11:52.382Z,46.57
2022-10-18T04:12:52.355Z,45.76
2022-10-18T04:13:52.342Z,47.70
2022-10-18T04:14:52.320Z,46.25
2022-10-18T04:15:52.312Z,46.08
2022-10-18T04:16:52.314Z,46.08
2022-10-18T04:17:52.281Z,57.85
2022-10-18T04:18:52.262Z,45.28
2022-10-18T04:19:52.253Z,59.78
2022-10-18T04:20:52.234Z,46.41
2022-10-18T04:21:52.251Z,57.36
2022-10-18T04:22:52.214Z,44.96
2022-10-18T04:23:52.211Z,43.83
2022-10-18T04:24:52.184Z,44.96
2022-10-18T04:25:52.173Z,47.21
2022-10-18T04:26:52.174Z,51.56
2022-10-18T04:27:52.156Z,44.15
2022-10-18T04:28:52.175Z,45.12
2022-10-18T04:29:52.127Z,47.70
2022-10-18T04:30:52.106Z,43.18
2022-10-18T04:31:52.115Z,59.30
2022-10-18T04:32:52.084Z,43.51
2022-10-18T04:33:52.072Z,41.73
2022-10-18T04:34:52.054Z,42.54
2022-10-18T04:35:52.043Z,42.22
2022-10-18T04:36:52.056Z,53.01
2022-10-18T04:37:52.065Z,46.57
2022-10-18T04:38:51.997Z,44.63
2022-10-18T04:39:53.650Z,48.82
2022-10-18T04:40:51.988Z,42.06
2022-10-18T04:41:51.987Z,44.15
2022-10-18T04:42:51.952Z,60.59
2022-10-18T04:43:51.940Z,52.37
2022-10-18T04:44:51.925Z,45.12
2022-10-18T04:45:51.913Z,51.88
2022-10-18T04:46:51.910Z,44.31
2022-10-18T04:47:51.879Z,43.02
2022-10-18T04:48:51.867Z,55.11
2022-10-18T04:49:51.858Z,43.99
2022-10-18T04:50:51.839Z,47.05
2022-10-18T04:51:51.849Z,43.99
2022-10-18T04:52:51.824Z,47.21
2022-10-18T04:53:51.809Z,64.13
2022-10-18T04:54:51.789Z,45.92
2022-10-18T04:55:51.779Z,55.91
2022-10-18T04:56:51.770Z,48.98
2022-10-18T04:57:51.761Z,45.28
2022-10-18T04:58:51.730Z,47.05
2022-10-18T04:59:51.728Z,47.05
2022-10-18T05:00:51.710Z,45.44
2022-10-18T05:03:01.518Z,47.05
2022-10-18T05:04:01.489Z,44.96
2022-10-18T05:05:01.478Z,49.79
2022-10-18T05:06:03.107Z,46.08
2022-10-18T05:07:01.470Z,45.44
2022-10-18T05:08:01.429Z,46.89
2022-10-18T05:09:01.420Z,47.05
2022-10-18T05:10:01.409Z,46.57
2022-10-18T05:11:01.471Z,53.82
2022-10-18T05:12:01.390Z,47.21
2022-10-18T05:13:01.378Z,46.73
2022-10-18T05:14:01.351Z,48.02
2022-10-18T05:15:01.341Z,45.28
2022-10-18T05:16:01.331Z,45.44
2022-10-18T05:17:01.332Z,42.86
2022-10-18T05:18:01.301Z,44.63
2022-10-18T05:19:01.293Z,45.28
2022-10-18T05:20:01.281Z,43.67
2022-10-18T05:21:01.263Z,45.44
2022-10-18T05:22:01.265Z,44.63
2022-10-18T05:23:01.246Z,45.76
2022-10-18T05:24:01.223Z,56.40
2022-10-18T05:25:01.211Z,46.08
2022-10-18T05:26:01.195Z,53.17
2022-10-18T05:27:01.201Z,59.62
2022-10-18T05:28:06.340Z,48.82
2022-10-18T05:29:02.227Z,57.69
2022-10-18T05:30:04.596Z,45.60
2022-10-18T05:31:01.131Z,55.91
2022-10-18T05:32:01.133Z,46.08
2022-10-18T05:33:01.105Z,57.69
2022-10-18T05:34:01.084Z,50.11
2022-10-18T05:35:01.079Z,60.59
2022-10-18T05:36:01.062Z,46.89
2022-10-18T05:37:01.078Z,44.47
2022-10-18T05:38:01.037Z,44.96
2022-10-18T05:39:04.089Z,47.86
2022-10-18T05:40:01.006Z,44.63
2022-10-18T05:41:00.996Z,44.15
2022-10-18T05:42:00.995Z,49.63
2022-10-18T05:43:00.966Z,50.11
2022-10-18T05:44:00.957Z,50.92
2022-10-18T05:45:00.947Z,47.05
2022-10-18T05:46:00.926Z,45.60
2022-10-18T05:47:00.927Z,47.53
2022-10-18T05:48:00.899Z,58.65
2022-10-18T05:49:00.888Z,47.05
2022-10-18T05:50:00.879Z,60.42
2022-10-18T05:51:00.869Z,48.18
2022-10-18T05:52:00.880Z,52.21
2022-10-18T05:53:11.951Z,63.00
2022-10-18T05:54:01.820Z,50.92
2022-10-18T05:55:00.808Z,52.85
2022-10-18T05:56:00.796Z,53.82
2022-10-18T05:57:00.801Z,49.47
2022-10-18T05:58:00.769Z,45.60
2022-10-18T05:59:00.760Z,62.04
2022-10-18T06:00:00.739Z,51.72
2022-10-18T06:01:00.729Z,55.27
2022-10-18T06:02:00.731Z,53.01
2022-10-18T06:03:00.833Z,50.76
2022-10-18T06:04:00.690Z,48.34
2022-10-18T06:05:00.680Z,48.02
2022-10-18T06:06:00.661Z,48.66
2022-10-18T06:07:00.669Z,46.73
2022-10-18T06:08:00.638Z,51.40
2022-10-18T06:09:00.623Z,53.50
2022-10-18T06:10:00.613Z,57.52
2022-10-18T06:11:00.599Z,59.30
2022-10-18T06:12:00.602Z,52.21
2022-10-18T06:13:00.576Z,52.21
2022-10-18T06:14:00.563Z,54.95
2022-10-18T06:15:00.552Z,44.79
2022-10-18T06:16:00.534Z,54.14
2022-10-18T06:17:00.532Z,49.31
2022-10-18T06:18:00.503Z,49.47
2022-10-18T06:19:00.485Z,53.50
2022-10-18T06:20:00.487Z,46.73
2022-10-18T06:21:00.453Z,49.15
2022-10-18T06:22:00.480Z,54.79
2022-10-18T06:23:00.434Z,53.01
2022-10-18T06:24:00.433Z,46.08
2022-10-18T06:25:00.413Z,46.57
2022-10-18T06:26:00.402Z,57.69
2022-10-18T06:27:00.431Z,55.75
2022-10-18T06:28:00.373Z,57.36
2022-10-18T06:29:00.455Z,53.33
2022-10-18T06:30:00.357Z,43.83
2022-10-18T06:31:00.335Z,60.10
2022-10-18T06:32:00.337Z,44.63
2022-10-18T06:33:00.307Z,49.95
2022-10-18T06:34:00.296Z,53.17
2022-10-18T06:35:00.279Z,47.37
2022-10-18T06:36:00.267Z,50.76
2022-10-18T06:37:00.278Z,44.96
2022-10-18T06:38:00.239Z,47.53
2022-10-18T06:39:00.277Z,46.25
2022-10-18T06:40:00.218Z,50.76
2022-10-18T06:41:00.205Z,48.34
2022-10-18T06:42:00.199Z,51.72
2022-10-18T06:43:10.596Z,58.49
2022-10-18T06:44:01.157Z,52.21
2022-10-18T06:45:00.147Z,59.46
2022-10-18T06:46:00.155Z,50.11
2022-10-18T06:47:00.138Z,51.24
2022-10-18T06:48:00.133Z,51.24
2022-10-18T06:49:00.108Z,66.23
2022-10-18T06:50:00.101Z,54.95
2022-10-18T06:51:00.085Z,50.76
2022-10-18T06:52:00.068Z,59.78
2022-10-18T06:53:00.048Z,57.52
2022-10-18T06:54:16.883Z,50.60
2022-10-18T06:55:01.011Z,56.24
2022-10-18T06:56:00.003Z,48.02
2022-10-18T06:57:00.010Z,51.72
2022-10-18T06:57:59.981Z,48.34
2022-10-18T06:58:59.964Z,48.98
2022-10-18T06:59:59.951Z,52.05
2022-10-18T07:00:59.930Z,48.02
2022-10-18T07:02:00.025Z,49.79
2022-10-18T07:02:59.910Z,61.87
2022-10-18T07:03:59.899Z,53.82
2022-10-18T07:04:59.875Z,48.50
2022-10-18T07:05:59.873Z,72.19
2022-10-18T07:06:59.873Z,48.50
2022-10-18T07:07:59.843Z,50.60
2022-10-18T07:08:59.829Z,48.02
2022-10-18T07:09:59.815Z,51.08
2022-10-18T07:10:59.801Z,47.53
2022-10-18T07:11:59.812Z,48.82
2022-10-18T07:13:19.996Z,46.73
2022-10-18T07:14:00.795Z,47.21
2022-10-18T07:14:59.743Z,58.81
2022-10-18T07:15:59.734Z,49.63
2022-10-18T07:16:59.734Z,56.88
2022-10-18T07:17:59.713Z,48.82
2022-10-18T07:18:59.694Z,47.70
2022-10-18T07:19:59.685Z,47.86
2022-10-18T07:20:59.665Z,45.76
2022-10-18T07:21:59.674Z,44.96
2022-10-18T07:22:59.639Z,43.83
2022-10-18T07:23:59.658Z,46.25
2022-10-18T07:24:59.616Z,43.99
2022-10-18T07:25:59.606Z,48.50
2022-10-18T07:26:59.606Z,62.04
2022-10-18T07:27:59.578Z,45.60
2022-10-18T07:28:59.585Z,45.44
2022-10-18T07:29:59.547Z,57.85
2022-10-18T07:31:03.653Z,45.76
2022-10-18T07:32:00.547Z,44.15
2022-10-18T07:32:59.506Z,45.28
2022-10-18T07:33:59.497Z,47.37
2022-10-18T07:34:59.496Z,53.66
2022-10-18T07:35:59.475Z,55.11
2022-10-18T07:36:59.476Z,52.05
2022-10-18T07:37:59.449Z,44.96
2022-10-18T07:38:59.429Z,48.98
2022-10-18T07:39:59.454Z,46.57
2022-10-18T07:40:59.398Z,51.56
2022-10-18T07:41:59.409Z,49.95
2022-10-18T07:43:04.077Z,58.65
2022-10-18T07:44:00.372Z,64.13
2022-10-18T07:44:59.341Z,51.08
2022-10-18T07:45:59.341Z,60.59
2022-10-18T07:46:59.338Z,52.21
2022-10-18T07:47:59.313Z,50.60
2022-10-18T07:48:59.298Z,56.40
2022-10-18T07:49:59.290Z,52.37
2022-10-18T07:50:59.269Z,58.97
2022-10-18T07:51:59.272Z,61.39
2022-10-18T07:52:59.240Z,62.04
2022-10-18T07:53:59.230Z,64.29
2022-10-18T07:54:59.217Z,63.49
2022-10-18T07:55:59.209Z,69.29
2022-10-18T07:56:59.201Z,77.99
2022-10-18T07:57:59.171Z,70.90
2022-10-18T07:58:59.163Z,70.42
2022-10-18T07:59:59.151Z,65.26
2022-10-18T08:00:59.133Z,63.00
2022-10-18T08:01:59.197Z,65.58
2022-10-18T08:02:59.110Z,65.42
2022-10-18T08:04:02.119Z,80.41
2022-10-18T08:05:00.083Z,67.84
2022-10-18T08:05:59.073Z,65.10
2022-10-18T08:06:59.064Z,66.87
2022-10-18T08:07:59.043Z,66.87
2022-10-18T08:08:59.025Z,68.96
2022-10-18T08:09:59.014Z,69.45
2022-10-18T08:10:58.994Z,61.07
2022-10-18T08:11:59.006Z,48.98
2022-10-18T08:12:58.972Z,47.05
2022-10-18T08:13:58.963Z,62.84
2022-10-18T08:14:58.944Z,50.43
2022-10-18T08:15:58.936Z,47.53
2022-10-18T08:16:58.940Z,46.25
2022-10-18T08:17:58.915Z,46.57
2022-10-18T08:18:58.894Z,44.63
2022-10-18T08:20:11.379Z,47.21
2022-10-18T08:20:59.870Z,46.57
2022-10-18T08:21:58.881Z,54.30
2022-10-18T08:23:00.351Z,55.43
2022-10-18T08:23:58.829Z,63.16
2022-10-18T08:24:58.815Z,50.27
2022-10-18T08:25:58.806Z,45.12
2022-10-18T08:26:58.806Z,44.96
2022-10-18T08:27:58.780Z,46.73
2022-10-18T08:29:17.532Z,51.40
2022-10-18T08:29:59.843Z,48.02
2022-10-18T08:30:58.729Z,46.57
2022-10-18T08:31:58.739Z,48.34
2022-10-18T08:32:58.709Z,48.18
2022-10-18T08:33:58.698Z,58.17
2022-10-18T08:34:58.681Z,48.98
2022-10-18T08:35:58.667Z,53.17
2022-10-18T08:36:58.669Z,51.88
2022-10-18T08:37:58.651Z,45.92
2022-10-18T08:38:58.627Z,57.69
2022-10-18T08:39:58.618Z,45.28
2022-10-18T08:40:58.598Z,43.99
2022-10-18T08:41:58.612Z,44.79
2022-10-18T08:42:58.571Z,45.60
2022-10-18T08:43:59.493Z,47.05
2022-10-18T08:45:02.055Z,44.63
2022-10-18T08:45:58.540Z,45.60
2022-10-18T08:46:58.531Z,42.86
2022-10-18T08:47:58.510Z,49.63
2022-10-18T08:48:58.491Z,46.41
2022-10-18T08:49:58.533Z,45.76
2022-10-18T08:50:58.469Z,46.08
2022-10-18T08:51:58.474Z,59.62
2022-10-18T08:52:58.451Z,54.79
2022-10-18T08:53:58.434Z,51.88
2022-10-18T08:54:58.413Z,54.14
2022-10-18T08:55:58.404Z,58.97
2022-10-18T08:56:58.407Z,52.69
2022-10-18T08:57:58.375Z,51.56
2022-10-18T08:58:58.356Z,59.30
2022-10-18T08:59:58.352Z,52.69
2022-10-18T09:00:58.343Z,52.53
2022-10-18T09:01:58.336Z,52.85
2022-10-18T09:02:58.359Z,55.11
2022-10-18T09:03:58.296Z,56.56
2022-10-18T09:04:58.283Z,45.60
2022-10-18T09:05:58.272Z,43.51
2022-10-18T09:06:58.265Z,49.63
2022-10-18T09:07:58.245Z,49.95
2022-10-18T09:08:58.225Z,47.37
2022-10-18T09:09:58.216Z,53.98
2022-10-18T09:12:01.165Z,45.60
2022-10-18T09:12:58.167Z,44.63
2022-10-18T09:13:58.164Z,57.85
2022-10-18T09:14:58.149Z,53.01
2022-10-18T09:15:58.127Z,45.12
2022-10-18T09:16:58.128Z,44.63
2022-10-18T09:17:58.108Z,54.79
2022-10-18T09:18:58.089Z,48.66
2022-10-18T09:19:58.078Z,47.86
2022-10-18T09:20:58.069Z,52.21
2022-10-18T09:21:58.070Z,43.51
2022-10-18T09:22:58.037Z,45.60
2022-10-18T09:23:58.035Z,47.21
2022-10-18T09:24:58.009Z,54.79
2022-10-18T09:25:58.001Z,46.73
2022-10-18T09:26:57.999Z,52.85
2022-10-18T09:27:57.971Z,49.47
2022-10-18T09:28:58.050Z,49.31
2022-10-18T09:29:57.948Z,47.21
2022-10-18T09:30:59.641Z,49.47
2022-10-18T09:31:57.939Z,51.08
2022-10-18T09:32:57.901Z,49.95
2022-10-18T09:33:57.892Z,49.31
2022-10-18T09:34:57.871Z,48.34
2022-10-18T09:35:57.870Z,54.95
2022-10-18T09:36:57.873Z,52.85
2022-10-18T09:37:57.848Z,47.70
2022-10-18T09:39:00.272Z,46.73
2022-10-18T09:39:57.815Z,50.76
2022-10-18T09:40:57.792Z,60.10
2022-10-18T09:41:57.803Z,62.04
2022-10-18T09:42:57.764Z,60.59
2022-10-18T09:43:57.761Z,60.42
2022-10-18T09:44:57.744Z,63.65
2022-10-18T09:45:57.734Z,69.93
2022-10-18T09:46:57.740Z,74.77
2022-10-18T09:47:57.705Z,68.32
2022-10-18T09:48:57.684Z,60.26
2022-10-18T09:49:57.677Z,72.67
2022-10-18T09:50:57.675Z,69.29
2022-10-18T09:51:57.667Z,68.80
2022-10-18T09:52:57.635Z,68.48
2022-10-18T09:53:57.626Z,67.03
2022-10-18T09:54:57.605Z,74.12
2022-10-18T09:55:57.596Z,62.04
2022-10-18T09:56:57.611Z,57.36
2022-10-18T09:57:57.574Z,59.94
2022-10-18T09:58:57.555Z,53.82
2022-10-18T09:59:57.548Z,54.14
2022-10-18T10:00:57.526Z,54.95
2022-10-18T10:01:57.537Z,47.37
2022-10-18T10:02:57.499Z,48.98
2022-10-18T10:03:57.487Z,56.88
2022-10-18T10:04:57.511Z,48.34
2022-10-18T10:05:57.459Z,49.31
2022-10-18T10:06:57.459Z,48.18
2022-10-18T10:07:57.439Z,48.50
2022-10-18T10:08:57.429Z,46.73
2022-10-18T10:09:57.460Z,53.33
2022-10-18T10:10:57.397Z,49.31
2022-10-18T10:11:57.402Z,48.66
2022-10-18T10:12:57.370Z,53.17
2022-10-18T10:13:57.361Z,45.44
2022-10-18T10:14:57.342Z,48.50
2022-10-18T10:15:57.330Z,43.02
2022-10-18T10:16:57.330Z,44.15
2022-10-18T10:17:57.301Z,49.63
2022-10-18T10:18:57.291Z,52.53
2022-10-18T10:19:57.280Z,49.79
2022-10-18T10:20:57.261Z,45.76
2022-10-18T10:21:57.269Z,53.01
2022-10-18T10:22:57.231Z,55.11
2022-10-18T10:23:57.257Z,49.79
2022-10-18T10:24:57.204Z,48.98
2022-10-18T10:25:57.203Z,56.40
2022-10-18T10:26:57.200Z,54.79
2022-10-18T10:27:57.163Z,60.59
2022-10-18T10:28:57.237Z,56.07
2022-10-18T10:29:57.352Z,49.79
2022-10-18T10:30:57.138Z,58.81
2022-10-18T10:31:57.205Z,52.37
2022-10-18T10:32:57.104Z,48.02
2022-10-18T10:33:57.084Z,57.85
2022-10-18T10:34:57.076Z,50.76
2022-10-18T10:35:57.066Z,58.17
2022-10-18T10:36:57.073Z,55.27
2022-10-18T10:37:57.036Z,48.18
2022-10-18T10:38:57.026Z,48.02
2022-10-18T10:40:17.252Z,48.18
2022-10-18T10:40:58.113Z,55.27
2022-10-18T10:42:06.865Z,48.66
2022-10-18T10:43:04.407Z,51.72
2022-10-18T10:43:57.950Z,49.31
2022-10-18T10:44:56.941Z,52.53
2022-10-18T10:45:56.929Z,60.91
2022-10-18T10:46:56.931Z,55.75
2022-10-18T10:47:56.901Z,47.70
2022-10-18T10:49:15.398Z,49.15
2022-10-18T10:49:57.871Z,51.56
2022-10-18T10:50:56.863Z,49.95
2022-10-18T10:52:08.304Z,50.76
2022-10-18T10:52:57.834Z,51.88
2022-10-18T10:53:56.819Z,58.97
2022-10-18T10:55:05.777Z,56.07
2022-10-18T10:55:57.793Z,57.52
2022-10-18T10:56:56.795Z,69.61
2022-10-18T10:57:56.776Z,57.52
2022-10-18T10:58:56.805Z,56.24
2022-10-18T10:59:56.733Z,51.08
2022-10-18T11:00:56.731Z,47.86
2022-10-18T11:01:56.727Z,58.49
2022-10-18T11:03:10.829Z,52.37
2022-10-18T11:03:57.752Z,54.30
2022-10-18T11:04:56.669Z,51.72
2022-10-18T11:05:56.659Z,49.31
2022-10-18T11:06:56.670Z,62.04
2022-10-18T11:07:56.630Z,50.76
2022-10-18T11:08:56.620Z,47.70
2022-10-18T11:09:56.615Z,58.81
2022-10-18T11:10:56.601Z,55.27
2022-10-18T11:11:56.663Z,53.82
2022-10-18T11:12:56.577Z,55.27
2022-10-18T11:14:13.652Z,57.69
2022-10-18T11:14:57.544Z,67.35
2022-10-18T11:15:56.521Z,50.11
2022-10-18T11:16:56.532Z,55.11
2022-10-18T11:17:56.505Z,58.01
2022-10-18T11:18:56.489Z,60.59
2022-10-18T11:19:56.472Z,52.53
2022-10-18T11:20:56.503Z,56.07
2022-10-18T11:21:56.466Z,63.81
2022-10-18T11:22:56.451Z,57.85
2022-10-18T11:23:56.422Z,55.59
2022-10-18T11:24:56.414Z,55.91
2022-10-18T11:25:56.403Z,65.10
2022-10-18T11:26:56.406Z,58.65
2022-10-18T11:27:56.365Z,57.36
2022-10-18T11:28:56.500Z,51.24
2022-10-18T11:29:56.344Z,53.82
2022-10-18T11:30:56.355Z,60.59
2022-10-18T11:31:56.335Z,59.30
2022-10-18T11:32:56.306Z,51.24
2022-10-18T11:34:08.657Z,57.69
2022-10-18T11:34:57.276Z,56.07
2022-10-18T11:36:00.211Z,53.66
2022-10-18T11:37:22.572Z,61.55
2022-10-18T11:37:57.239Z,68.64
2022-10-18T11:38:56.218Z,71.38
2022-10-18T11:39:56.207Z,65.10
2022-10-18T11:40:56.198Z,58.01
2022-10-18T11:41:56.199Z,53.01
2022-10-18T11:42:56.169Z,60.59
2022-10-18T11:44:03.935Z,52.37
2022-10-18T11:44:57.149Z,61.07
2022-10-18T11:45:56.130Z,59.78
2022-10-18T11:46:56.130Z,56.88
2022-10-18T11:47:56.116Z,63.65
2022-10-18T11:48:56.091Z,64.29
2022-10-18T11:49:56.089Z,56.40
2022-10-18T11:50:56.061Z,58.81
2022-10-18T11:52:08.005Z,59.62
2022-10-18T11:52:57.042Z,66.06
2022-10-18T11:53:56.025Z,65.26
2022-10-18T11:54:56.015Z,60.26
2022-10-18T11:55:56.013Z,66.87
2022-10-18T11:56:56.003Z,77.83
2022-10-18T11:57:55.974Z,53.82
2022-10-18T11:58:55.966Z,59.62
2022-10-18T11:59:55.945Z,71.54
2022-10-18T12:00:55.935Z,63.33
2022-10-18T12:01:55.934Z,60.91
2022-10-18T12:02:55.988Z,51.88
2022-10-18T12:03:55.898Z,57.52
2022-10-18T12:05:22.090Z,55.75
2022-10-18T12:05:56.866Z,55.11
2022-10-18T12:06:55.873Z,61.23
2022-10-18T12:07:55.843Z,59.94
2022-10-18T12:08:55.826Z,54.30
2022-10-18T12:09:55.829Z,58.17
2022-10-18T12:11:10.479Z,53.98
2022-10-18T12:11:56.807Z,59.30
2022-10-18T12:12:55.779Z,47.86
2022-10-18T12:13:55.758Z,58.01
2022-10-18T12:14:55.750Z,59.30
2022-10-18T12:15:55.729Z,47.70
2022-10-18T12:17:20.213Z,50.43
2022-10-18T12:17:57.237Z,55.11
2022-10-18T12:18:55.699Z,55.91
2022-10-18T12:19:55.680Z,50.43
2022-10-18T12:20:55.672Z,53.50
2022-10-18T12:21:55.670Z,53.98
2022-10-18T12:22:55.640Z,51.56
2022-10-18T12:23:55.622Z,58.01
2022-10-18T12:24:55.611Z,57.52
2022-10-18T12:25:55.619Z,60.91
2022-10-18T12:26:55.611Z,56.88
2022-10-18T12:27:55.603Z,56.72
2022-10-18T12:28:55.617Z,58.49
2022-10-18T12:29:55.544Z,51.56
2022-10-18T12:30:55.533Z,59.94
2022-10-18T12:31:55.533Z,52.85
2022-10-18T12:33:03.644Z,54.46
2022-10-18T12:33:56.494Z,53.66
2022-10-18T12:34:55.484Z,58.49
2022-10-18T12:35:55.465Z,50.60
2022-10-18T12:36:55.519Z,54.79
2022-10-18T12:37:55.437Z,52.85
2022-10-18T12:38:55.443Z,48.34
2022-10-18T12:40:09.784Z,48.82
2022-10-18T12:40:56.408Z,60.75
2022-10-18T12:41:55.406Z,51.56
2022-10-18T12:42:55.378Z,54.30
2022-10-18T12:43:55.357Z,53.50
2022-10-18T12:44:55.357Z,50.76
2022-10-18T12:45:55.338Z,52.85
2022-10-18T12:46:55.350Z,48.50
2022-10-18T12:47:55.308Z,51.88
2022-10-18T12:48:55.300Z,55.11
2022-10-18T12:49:55.292Z,53.98
2022-10-18T12:50:55.280Z,54.95
2022-10-18T12:51:55.279Z,46.73
2022-10-18T12:52:55.249Z,52.05
2022-10-18T12:53:55.231Z,53.17
2022-10-18T12:54:55.221Z,52.05
2022-10-18T12:55:55.210Z,56.88
2022-10-18T12:56:55.199Z,54.95
2022-10-18T12:57:55.193Z,53.33